Airfield :
LOGIN :

Register | Disclaimer

   EN    FR    IT 

 










Legend :    VFR   Marginal VFR   IFR   Intensive IFR   Very Intensive IFR
Visi :
Ceiling :
>= 8 km
>= 3000ft
5 to 8 km
1000 to 3000 ft
1500m to 5 km
500 to 1000 ft
800 to 1500m
200 to 500 ft
< 800m
< 200 ft
Symbols :   Thunderstorms  Fog  Heavy snow  Heavy precipitations  Wind > 20 kt
SIGMETs :     Misc.  Thunderstorms  Icing  Turbulence  Mountain Waves  Volcanic Ashes







- Airport Elevation : 1090 ft
- IATA code : CFE
- Download approach charts


LFLC - Clermont-Ferrand Auvergne

CURRENT METAR :
  • 211530Z AUTO 17017KT CAVOK 26/12 Q1012 BECMG 17015G25KT

EXPIRED METARs :
  • 211500Z AUTO 17013KT 130V210 CAVOK 27/12 Q1012 TEMPO 17020G35KT
  • 211430Z AUTO 16015KT CAVOK 28/12 Q1012 TEMPO 17020G35KT
  • 211400Z AUTO 16013KT 130V200 CAVOK 27/12 Q1012 TEMPO 17020G35KT FEW070TCU BKN080
  • 211330Z AUTO 17016KT CAVOK 27/12 Q1013 TEMPO 17020G35KT FEW070TCU BKN080
  • 211300Z AUTO 16016KT 120V180 CAVOK 27/12 Q1013 TEMPO 17020G35KT FEW070TCU BKN080

TAF TAF LFLC
Valid from the 21 at 15:00 until the 22 at 15:00 UTC


211400Z 2115/2215 17015G25KT CAVOK
PROB40
TEMPO 2115/2117 17020G35KT
TEMPO 2120/2124 BKN032
BECMG 2211/2213 33010KT 5000 RA OVC038
TEMPO 2211/2214 3000 TSRA BKN015 BKN022CB OVC035
ATIS : +33 4 73 62 74 38
No reported NOTAMs for that airfield.



MET'MAP, your aeronautical weather chart ! - Copyright ORBIFLY December 2007 - Disclaimer

ORBIFLY MET'MAP TEAM :

Programming & Development : Alexandra Zaïnal
Concept & Development : Baudouin d'Aumeries
Co-Development & Prog : Marc-Olivier Méhu
Technical & hardware support : Manuel Goepfert

Contact : metmap@orbifly.com




SOURCES & CREDITS :

   NOAA